CWSW

Sparwood / Elk Valley Airport

Sparwood/Elk Valley, Canada
METAR CWSW 220000Z 00000KT 20SM FEW050 BKN220 00/M07 A2997 RMK SC2CI4 LAST STFD OBS/NEXT 221400Z SLP190
Observed Flight Rules
Jan-22 @ 00:00 UTC (10 hours ago) Visual Flight Rules
Wind Visibility Clouds
Calm 20 miles
  • Few at 5,000' AGL
  • Broken at 22,000' AGL
Temperatures Readings
Current 0°C / 32°F
Dewpoint -7°C / 19°F
Humidity 60%
Altimeter 29.97" Hg
Pressure 1019 hPa
Elevation 1138
METAR CWSW 220000Z 00000KT 20SM FEW050 BKN220 00/M07 A2997 RMK SC2CI4 LAST STFD OBS/NEXT 221400Z SLP190
Observed Flight Rules
Jan-22 @ 00:00 UTC
(10 hours ago)
VFR
Wind Visibility
Calm 20 miles
Clouds
  • Few at 5,000' AGL
  • Broken at 22,000' AGL
Temperature Dewpoint
0°C / 32°F -7°C / 19°F
Humidity Altimeter Pressure
60% 29.97" Hg 1019 hPa